Observations for BENSON RAF, United Kingdom (EGUB)

EGUB 201950Z 18009KT 9999 FEW015 BKN020 09/07 Q1021 WHT TEMPO SCT014 GRN
EGUB 201850Z 19009KT 9999 SCT035 BKN110 08/06 Q1020 BLU TEMPO SCT022 WHT
EGUB 201750Z 18010KT 9999 FEW025 BKN035 BKN110 10/07 Q1020 BLU NOSIG
EGUB 201650Z 21012KT 9999 FEW030 BKN038 11/06 Q1020 BLU NOSIG   
EGUB 201550Z 20008KT 9999 FEW026 BKN040 11/07 Q1019 BLU TEMPO SCT022 WHT
EGUB 201450Z 19009KT 9999 SCT023 BKN038 11/07 Q1019 WHT TEMPO SCT025 BLU
EGUB 201350Z 21009KT 9999 SCT022 BKN040 11/07 Q1019 WHT TEMPO SCT025 BLU
EGUB 201250Z 20012KT 9999 SCT022 SCT040 BKN150 11/07 Q1019 WHT TEMPO SCT025 BLU 
EGUB 201150Z 19011KT 9999 BKN022 11/07 Q1019 WHT BECMG BKN025 BLU   
EGUB 201050Z 20010KT 9999 BKN015 SCT035 10/07 Q1019 WHT NOSIG   
EGUB 200950Z 19011KT 9999 BKN014 BKN032 09/06 Q1019 GRN NOSIG   
EGUB 200912Z 20012KT 9999 FEW011 BKN017 09/06 Q1018 WHT TEMPO SCT014 GRN
EGUB 200850Z 18010KT 9999 FEW016 BKN025 08/06 Q1018 BLU BECMG SCT018 WHT
EGUB 200750Z 18011KT 9999 FEW014 SCT025 BKN120 08/06 Q1018 BLU TEMPO SCT015 WHT 
EGUB 200720Z 19011KT 9999 FEW014 SCT035 08/06 Q1017 BLU TEMPO SCT014 GRN
EGUB 200650Z 19009KT 9999 BKN014 BKN035 08/06 Q1017 GRN NOSIG   
EGUB 200550Z AUTO 19008KT 9999 // SCT013/// BKN030/// 08/06 Q1017   
EGUB 200450Z AUTO 19009KT 9999 // BKN014/// BKN036/// 08/06 Q1017   
EGUB 200350Z AUTO 18009KT 9999 // FEW014/// BKN080/// 07/06 Q1017   
EGUB 200250Z AUTO 19009KT 9999 // FEW013/// BKN034/// BKN080/// 07/06 Q1017 
EGUB 200150Z AUTO 18010KT 9999 // FEW014/// BKN036/// BKN080/// 07/06 Q1018 
EGUB 200050Z AUTO 19009KT 9999 // FEW014/// BKN100/// 07/05 Q1018   
EGUB 192350Z 19010KT 9999 SCT013 BKN035 OVC080 08/06 Q1018 GRN TEMPO FEW014 BLU 
EGUB 192250Z 19008KT 9999 FEW016 BKN090 OVC120 07/05 Q1018 BLU TEMPO SCT014 GRN 
EGUB 192150Z 20009KT CAVOK 08/05 Q1018 BLU TEMPO SCT015 WHT 
EGUB 192050Z 19009KT CAVOK 07/05 Q1018 BLU NOSIG
EGUB 191950Z 19010KT CAVOK 08/05 Q1018 BLU NOSIG